sensor_id;sensor_type;location;lat;lon;timestamp;pressure;altitude;pressure_sealevel;temperature;humidity
61528;BME280;47395;42.032;-8.634;2022-07-15T00:00:57;100588.78;;;29.83;39.55
61528;BME280;47395;42.032;-8.634;2022-07-15T00:02:58;100587.13;;;29.82;39.00
61528;BME280;47395;42.032;-8.634;2022-07-15T00:04:59;100571.44;;;29.78;39.13
61528;BME280;47395;42.032;-8.634;2022-07-15T00:07:01;100545.53;;;29.82;39.31
61528;BME280;47395;42.032;-8.634;2022-07-15T00:09:02;100544.50;;;29.90;38.83
61528;BME280;47395;42.032;-8.634;2022-07-15T00:11:03;100532.16;;;29.87;39.11
61528;BME280;47395;42.032;-8.634;2022-07-15T00:13:04;100524.03;;;29.87;38.56
61528;BME280;47395;42.032;-8.634;2022-07-15T00:15:05;100508.78;;;29.93;39.01
61528;BME280;47395;42.032;-8.634;2022-07-15T00:17:06;100499.78;;;29.99;37.98
61528;BME280;47395;42.032;-8.634;2022-07-15T00:19:07;100498.31;;;29.96;38.17
61528;BME280;47395;42.032;-8.634;2022-07-15T00:21:08;100509.19;;;29.96;38.44
61528;BME280;47395;42.032;-8.634;2022-07-15T00:23:09;100517.31;;;30.03;38.42
61528;BME280;47395;42.032;-8.634;2022-07-15T00:25:11;100508.38;;;29.96;38.99
61528;BME280;47395;42.032;-8.634;2022-07-15T00:27:12;100504.19;;;29.87;38.64
61528;BME280;47395;42.032;-8.634;2022-07-15T00:29:14;100514.41;;;29.84;38.95
61528;BME280;47395;42.032;-8.634;2022-07-15T00:31:15;100546.19;;;29.77;39.06
61528;BME280;47395;42.032;-8.634;2022-07-15T00:33:16;100575.41;;;29.75;39.28
61528;BME280;47395;42.032;-8.634;2022-07-15T00:35:17;100556.59;;;29.80;39.22
61528;BME280;47395;42.032;-8.634;2022-07-15T00:37:18;100574.56;;;29.88;38.78
61528;BME280;47395;42.032;-8.634;2022-07-15T00:39:19;100572.06;;;29.73;39.30
61528;BME280;47395;42.032;-8.634;2022-07-15T00:41:20;100570.19;;;29.87;38.96
61528;BME280;47395;42.032;-8.634;2022-07-15T00:43:21;100567.47;;;29.87;38.58
61528;BME280;47395;42.032;-8.634;2022-07-15T00:45:23;100573.09;;;29.79;38.52
61528;BME280;47395;42.032;-8.634;2022-07-15T00:47:24;100575.00;;;29.78;38.77
61528;BME280;47395;42.032;-8.634;2022-07-15T00:49:26;100580.81;;;29.68;39.98
61528;BME280;47395;42.032;-8.634;2022-07-15T00:51:26;100582.28;;;29.64;40.04
61528;BME280;47395;42.032;-8.634;2022-07-15T00:53:28;100574.53;;;29.61;39.86
61528;BME280;47395;42.032;-8.634;2022-07-15T00:55:31;100568.22;;;29.47;39.94
61528;BME280;47395;42.032;-8.634;2022-07-15T00:57:35;100565.75;;;29.52;40.42
61528;BME280;47395;42.032;-8.634;2022-07-15T00:59:37;100567.97;;;29.28;41.54
61528;BME280;47395;42.032;-8.634;2022-07-15T01:01:40;100544.34;;;29.22;41.18
61528;BME280;47395;42.032;-8.634;2022-07-15T01:03:42;100547.09;;;29.29;39.51
61528;BME280;47395;42.032;-8.634;2022-07-15T01:05:44;100531.44;;;29.31;39.85
61528;BME280;47395;42.032;-8.634;2022-07-15T01:07:47;100523.94;;;29.33;40.15
61528;BME280;47395;42.032;-8.634;2022-07-15T01:09:50;100541.88;;;29.41;39.83
61528;BME280;47395;42.032;-8.634;2022-07-15T01:11:51;100535.84;;;29.39;40.30
61528;BME280;47395;42.032;-8.634;2022-07-15T01:13:52;100542.03;;;29.19;41.55
61528;BME280;47395;42.032;-8.634;2022-07-15T01:15:55;100533.84;;;29.05;41.84
61528;BME280;47395;42.032;-8.634;2022-07-15T01:17:58;100538.28;;;29.13;41.40
61528;BME280;47395;42.032;-8.634;2022-07-15T01:20:00;100532.44;;;29.16;41.51
61528;BME280;47395;42.032;-8.634;2022-07-15T01:22:08;100520.94;;;29.08;40.54
61528;BME280;47395;42.032;-8.634;2022-07-15T01:24:10;100518.47;;;29.19;39.97
61528;BME280;47395;42.032;-8.634;2022-07-15T01:26:49;100519.97;;;29.36;39.05
61528;BME280;47395;42.032;-8.634;2022-07-15T01:28:54;100517.69;;;29.46;38.66
61528;BME280;47395;42.032;-8.634;2022-07-15T01:30:57;100504.53;;;29.43;39.43
61528;BME280;47395;42.032;-8.634;2022-07-15T01:33:01;100506.63;;;29.48;38.97
61528;BME280;47395;42.032;-8.634;2022-07-15T01:35:02;100513.50;;;29.50;39.67
61528;BME280;47395;42.032;-8.634;2022-07-15T01:37:03;100509.81;;;29.51;39.16
61528;BME280;47395;42.032;-8.634;2022-07-15T01:39:06;100503.56;;;29.64;37.94
61528;BME280;47395;42.032;-8.634;2022-07-15T01:41:07;100492.47;;;29.52;39.44
61528;BME280;47395;42.032;-8.634;2022-07-15T01:43:08;100493.09;;;29.61;38.78
61528;BME280;47395;42.032;-8.634;2022-07-15T01:45:10;100507.28;;;29.50;39.35
61528;BME280;47395;42.032;-8.634;2022-07-15T01:47:12;100506.06;;;29.52;39.92
61528;BME280;47395;42.032;-8.634;2022-07-15T01:49:14;100482.16;;;29.21;40.52
61528;BME280;47395;42.032;-8.634;2022-07-15T01:51:45;100475.25;;;29.18;40.67
61528;BME280;47395;42.032;-8.634;2022-07-15T01:53:46;100471.28;;;29.14;40.82
61528;BME280;47395;42.032;-8.634;2022-07-15T01:55:47;100458.28;;;28.89;42.98
61528;BME280;47395;42.032;-8.634;2022-07-15T01:57:49;100462.63;;;28.83;43.48
61528;BME280;47395;42.032;-8.634;2022-07-15T01:59:50;100471.97;;;28.74;43.47
61528;BME280;47395;42.032;-8.634;2022-07-15T02:02:05;100464.78;;;28.52;43.42
61528;BME280;47395;42.032;-8.634;2022-07-15T02:04:06;100468.06;;;28.41;43.96
61528;BME280;47395;42.032;-8.634;2022-07-15T02:06:07;100453.81;;;28.25;44.90
61528;BME280;47395;42.032;-8.634;2022-07-15T02:08:09;100460.34;;;28.09;44.50
61528;BME280;47395;42.032;-8.634;2022-07-15T02:10:10;100456.59;;;28.10;45.18
61528;BME280;47395;42.032;-8.634;2022-07-15T02:12:14;100456.16;;;28.07;44.36
61528;BME280;47395;42.032;-8.634;2022-07-15T02:14:19;100461.53;;;28.00;44.73
61528;BME280;47395;42.032;-8.634;2022-07-15T02:16:22;100456.88;;;27.87;44.99
61528;BME280;47395;42.032;-8.634;2022-07-15T02:18:26;100449.75;;;27.86;44.54
61528;BME280;47395;42.032;-8.634;2022-07-15T02:20:28;100457.31;;;27.91;45.25
61528;BME280;47395;42.032;-8.634;2022-07-15T02:22:30;100452.13;;;27.96;44.96
61528;BME280;47395;42.032;-8.634;2022-07-15T02:24:32;100450.22;;;27.89;45.03
61528;BME280;47395;42.032;-8.634;2022-07-15T02:26:33;100453.13;;;27.88;44.28
61528;BME280;47395;42.032;-8.634;2022-07-15T02:28:35;100455.19;;;27.86;44.72
61528;BME280;47395;42.032;-8.634;2022-07-15T02:30:38;100448.03;;;27.78;44.38
61528;BME280;47395;42.032;-8.634;2022-07-15T02:32:40;100449.38;;;27.89;44.79
61528;BME280;47395;42.032;-8.634;2022-07-15T02:34:41;100462.66;;;27.84;44.75
61528;BME280;47395;42.032;-8.634;2022-07-15T02:36:42;100468.16;;;27.69;45.34
61528;BME280;47395;42.032;-8.634;2022-07-15T02:38:44;100471.31;;;27.72;45.35
61528;BME280;47395;42.032;-8.634;2022-07-15T02:40:46;100471.44;;;27.64;45.56
61528;BME280;47395;42.032;-8.634;2022-07-15T02:42:49;100474.28;;;27.56;45.84
61528;BME280;47395;42.032;-8.634;2022-07-15T02:44:51;100473.38;;;27.48;46.23
61528;BME280;47395;42.032;-8.634;2022-07-15T02:46:52;100485.34;;;27.39;46.64
61528;BME280;47395;42.032;-8.634;2022-07-15T02:48:58;100476.50;;;27.30;46.71
61528;BME280;47395;42.032;-8.634;2022-07-15T02:50:59;100482.25;;;27.20;47.16
61528;BME280;47395;42.032;-8.634;2022-07-15T02:53:02;100475.38;;;27.18;47.14
61528;BME280;47395;42.032;-8.634;2022-07-15T02:55:05;100475.94;;;27.13;46.97
61528;BME280;47395;42.032;-8.634;2022-07-15T02:57:06;100474.50;;;26.95;47.61
61528;BME280;47395;42.032;-8.634;2022-07-15T02:59:08;100461.31;;;26.92;47.46
61528;BME280;47395;42.032;-8.634;2022-07-15T03:01:11;100467.59;;;26.78;48.34
61528;BME280;47395;42.032;-8.634;2022-07-15T03:03:13;100438.41;;;26.73;48.54
61528;BME280;47395;42.032;-8.634;2022-07-15T03:05:15;100428.66;;;26.72;48.61
61528;BME280;47395;42.032;-8.634;2022-07-15T03:07:17;100451.22;;;26.64;48.86
61528;BME280;47395;42.032;-8.634;2022-07-15T03:09:18;100445.53;;;26.59;48.98
61528;BME280;47395;42.032;-8.634;2022-07-15T03:11:19;100432.66;;;26.61;49.13
61528;BME280;47395;42.032;-8.634;2022-07-15T03:13:22;100429.63;;;26.49;49.14
61528;BME280;47395;42.032;-8.634;2022-07-15T03:15:26;100441.38;;;26.41;49.88
61528;BME280;47395;42.032;-8.634;2022-07-15T03:17:27;100448.72;;;26.48;49.66
61528;BME280;47395;42.032;-8.634;2022-07-15T03:19:28;100448.53;;;26.49;49.84
61528;BME280;47395;42.032;-8.634;2022-07-15T03:21:30;100459.16;;;26.51;49.75
61528;BME280;47395;42.032;-8.634;2022-07-15T03:23:31;100446.09;;;26.39;50.26
61528;BME280;47395;42.032;-8.634;2022-07-15T03:25:32;100441.25;;;26.19;50.39
61528;BME280;47395;42.032;-8.634;2022-07-15T03:27:38;100442.19;;;26.12;50.88
61528;BME280;47395;42.032;-8.634;2022-07-15T03:29:42;100445.59;;;26.05;50.70
61528;BME280;47395;42.032;-8.634;2022-07-15T03:31:44;100452.38;;;26.01;50.92
61528;BME280;47395;42.032;-8.634;2022-07-15T03:33:48;100446.78;;;25.88;51.25
61528;BME280;47395;42.032;-8.634;2022-07-15T03:35:49;100444.38;;;25.78;51.66
61528;BME280;47395;42.032;-8.634;2022-07-15T03:37:53;100425.25;;;25.64;52.25
61528;BME280;47395;42.032;-8.634;2022-07-15T03:39:54;100428.59;;;25.66;52.32
61528;BME280;47395;42.032;-8.634;2022-07-15T03:41:55;100422.19;;;25.67;52.20
61528;BME280;47395;42.032;-8.634;2022-07-15T03:43:57;100409.06;;;25.64;51.93
61528;BME280;47395;42.032;-8.634;2022-07-15T03:45:58;100412.97;;;25.62;52.35
61528;BME280;47395;42.032;-8.634;2022-07-15T03:47:59;100414.56;;;25.56;52.41
61528;BME280;47395;42.032;-8.634;2022-07-15T03:50:00;100410.00;;;25.48;52.71
61528;BME280;47395;42.032;-8.634;2022-07-15T03:52:01;100409.72;;;25.43;53.04
61528;BME280;47395;42.032;-8.634;2022-07-15T03:54:03;100409.72;;;25.43;53.28
61528;BME280;47395;42.032;-8.634;2022-07-15T03:56:04;100408.41;;;25.39;53.44
61528;BME280;47395;42.032;-8.634;2022-07-15T03:58:06;100399.72;;;25.28;53.63
61528;BME280;47395;42.032;-8.634;2022-07-15T04:00:09;100412.25;;;25.21;53.54
61528;BME280;47395;42.032;-8.634;2022-07-15T04:07:05;100454.34;;;24.99;54.90
61528;BME280;47395;42.032;-8.634;2022-07-15T04:09:06;100455.91;;;24.93;55.07
61528;BME280;47395;42.032;-8.634;2022-07-15T04:11:09;100457.44;;;24.87;55.47
61528;BME280;47395;42.032;-8.634;2022-07-15T04:13:10;100448.34;;;24.80;55.23
61528;BME280;47395;42.032;-8.634;2022-07-15T04:15:11;100441.66;;;24.76;55.54
61528;BME280;47395;42.032;-8.634;2022-07-15T04:17:18;100438.56;;;24.79;55.48
61528;BME280;47395;42.032;-8.634;2022-07-15T04:19:20;100448.72;;;24.77;55.65
61528;BME280;47395;42.032;-8.634;2022-07-15T04:21:21;100461.50;;;24.75;55.42
61528;BME280;47395;42.032;-8.634;2022-07-15T04:23:23;100482.56;;;24.71;55.69
61528;BME280;47395;42.032;-8.634;2022-07-15T04:25:25;100465.78;;;24.61;56.41
61528;BME280;47395;42.032;-8.634;2022-07-15T04:27:27;100457.91;;;24.51;56.91
61528;BME280;47395;42.032;-8.634;2022-07-15T04:29:27;100472.56;;;24.48;57.49
61528;BME280;47395;42.032;-8.634;2022-07-15T04:31:29;100462.97;;;24.46;57.25
61528;BME280;47395;42.032;-8.634;2022-07-15T04:33:41;100465.84;;;24.36;57.38
61528;BME280;47395;42.032;-8.634;2022-07-15T04:35:42;100466.22;;;24.24;57.92
61528;BME280;47395;42.032;-8.634;2022-07-15T04:37:43;100465.91;;;24.19;57.94
61528;BME280;47395;42.032;-8.634;2022-07-15T04:39:45;100466.91;;;24.10;58.19
61528;BME280;47395;42.032;-8.634;2022-07-15T04:41:47;100484.56;;;24.12;57.99
61528;BME280;47395;42.032;-8.634;2022-07-15T04:43:52;100494.31;;;24.14;57.71
61528;BME280;47395;42.032;-8.634;2022-07-15T04:45:53;100487.75;;;24.08;57.93
61528;BME280;47395;42.032;-8.634;2022-07-15T04:47:55;100481.38;;;24.01;58.23
61528;BME280;47395;42.032;-8.634;2022-07-15T04:50:04;100482.22;;;24.01;57.99
61528;BME280;47395;42.032;-8.634;2022-07-15T04:52:24;100475.00;;;24.10;57.05
61528;BME280;47395;42.032;-8.634;2022-07-15T04:54:25;100478.53;;;24.10;57.22
61528;BME280;47395;42.032;-8.634;2022-07-15T04:56:26;100469.91;;;24.07;56.30
61528;BME280;47395;42.032;-8.634;2022-07-15T04:58:37;100488.09;;;24.21;56.23
61528;BME280;47395;42.032;-8.634;2022-07-15T05:00:43;100478.84;;;24.32;55.65
61528;BME280;47395;42.032;-8.634;2022-07-15T05:02:46;100471.72;;;24.40;55.14
61528;BME280;47395;42.032;-8.634;2022-07-15T05:04:49;100476.28;;;24.47;54.56
61528;BME280;47395;42.032;-8.634;2022-07-15T05:06:52;100487.19;;;24.54;54.71
61528;BME280;47395;42.032;-8.634;2022-07-15T05:08:53;100477.94;;;24.48;55.09
61528;BME280;47395;42.032;-8.634;2022-07-15T05:10:54;100467.81;;;24.50;54.27
61528;BME280;47395;42.032;-8.634;2022-07-15T05:12:54;100485.31;;;24.55;54.77
61528;BME280;47395;42.032;-8.634;2022-07-15T05:14:56;100499.16;;;24.51;54.30
61528;BME280;47395;42.032;-8.634;2022-07-15T05:16:57;100494.41;;;24.54;54.56
61528;BME280;47395;42.032;-8.634;2022-07-15T05:18:58;100501.47;;;24.55;55.20
61528;BME280;47395;42.032;-8.634;2022-07-15T05:21:00;100505.50;;;24.59;54.87
61528;BME280;47395;42.032;-8.634;2022-07-15T05:23:05;100511.06;;;24.57;55.26
61528;BME280;47395;42.032;-8.634;2022-07-15T05:25:11;100516.31;;;24.42;55.48
61528;BME280;47395;42.032;-8.634;2022-07-15T05:27:14;100521.19;;;24.47;55.91
61528;BME280;47395;42.032;-8.634;2022-07-15T05:29:18;100512.97;;;24.40;56.13
61528;BME280;47395;42.032;-8.634;2022-07-15T05:31:25;100510.44;;;24.38;56.55
61528;BME280;47395;42.032;-8.634;2022-07-15T05:33:26;100512.47;;;24.36;56.89
61528;BME280;47395;42.032;-8.634;2022-07-15T05:35:27;100494.47;;;24.29;57.19
61528;BME280;47395;42.032;-8.634;2022-07-15T05:37:28;100486.75;;;24.34;57.02
61528;BME280;47395;42.032;-8.634;2022-07-15T05:39:29;100499.19;;;24.35;57.03
61528;BME280;47395;42.032;-8.634;2022-07-15T05:41:30;100510.13;;;24.33;57.03
61528;BME280;47395;42.032;-8.634;2022-07-15T05:43:33;100510.13;;;24.25;56.85
61528;BME280;47395;42.032;-8.634;2022-07-15T05:45:34;100521.38;;;24.29;57.23
61528;BME280;47395;42.032;-8.634;2022-07-15T05:47:39;100517.50;;;24.31;57.31
61528;BME280;47395;42.032;-8.634;2022-07-15T05:49:40;100517.50;;;24.40;57.16
61528;BME280;47395;42.032;-8.634;2022-07-15T05:51:41;100524.94;;;24.29;57.57
61528;BME280;47395;42.032;-8.634;2022-07-15T05:53:43;100520.72;;;24.27;57.83
61528;BME280;47395;42.032;-8.634;2022-07-15T05:55:44;100511.81;;;24.18;57.88
61528;BME280;47395;42.032;-8.634;2022-07-15T05:57:50;100513.34;;;24.12;58.32
61528;BME280;47395;42.032;-8.634;2022-07-15T05:59:56;100520.56;;;24.20;58.46
61528;BME280;47395;42.032;-8.634;2022-07-15T06:01:58;100518.06;;;24.10;58.82
61528;BME280;47395;42.032;-8.634;2022-07-15T06:03:59;100520.75;;;24.10;59.17
61528;BME280;47395;42.032;-8.634;2022-07-15T06:06:00;100527.16;;;24.17;58.87
61528;BME280;47395;42.032;-8.634;2022-07-15T06:08:01;100526.44;;;24.23;58.51
61528;BME280;47395;42.032;-8.634;2022-07-15T06:10:07;100528.81;;;24.27;58.70
61528;BME280;47395;42.032;-8.634;2022-07-15T06:12:09;100531.16;;;24.30;57.92
61528;BME280;47395;42.032;-8.634;2022-07-15T06:14:10;100535.66;;;24.54;57.50
61528;BME280;47395;42.032;-8.634;2022-07-15T06:16:11;100536.44;;;24.71;56.76
61528;BME280;47395;42.032;-8.634;2022-07-15T06:18:12;100537.06;;;24.82;56.67
61528;BME280;47395;42.032;-8.634;2022-07-15T06:20:13;100542.97;;;24.94;56.37
61528;BME280;47395;42.032;-8.634;2022-07-15T06:22:14;100546.63;;;25.01;55.93
61528;BME280;47395;42.032;-8.634;2022-07-15T06:24:15;100546.44;;;25.11;56.01
61528;BME280;47395;42.032;-8.634;2022-07-15T06:26:17;100548.03;;;25.28;55.17
61528;BME280;47395;42.032;-8.634;2022-07-15T06:28:17;100559.31;;;25.55;54.38
61528;BME280;47395;42.032;-8.634;2022-07-15T06:30:18;100558.06;;;25.75;54.22
61528;BME280;47395;42.032;-8.634;2022-07-15T06:32:19;100554.09;;;25.86;53.67
61528;BME280;47395;42.032;-8.634;2022-07-15T06:34:20;100566.78;;;26.00;52.93
61528;BME280;47395;42.032;-8.634;2022-07-15T06:36:21;100563.09;;;26.16;52.38
61528;BME280;47395;42.032;-8.634;2022-07-15T06:38:22;100564.56;;;26.27;52.23
61528;BME280;47395;42.032;-8.634;2022-07-15T06:40:23;100564.97;;;26.69;50.99
61528;BME280;47395;42.032;-8.634;2022-07-15T06:42:24;100565.34;;;26.81;50.50
61528;BME280;47395;42.032;-8.634;2022-07-15T06:44:37;100572.13;;;27.37;49.05
61528;BME280;47395;42.032;-8.634;2022-07-15T06:46:42;100564.56;;;27.70;48.22
61528;BME280;47395;42.032;-8.634;2022-07-15T06:48:43;100573.28;;;27.87;47.56
61528;BME280;47395;42.032;-8.634;2022-07-15T06:50:44;100578.13;;;28.20;47.37
61528;BME280;47395;42.032;-8.634;2022-07-15T06:52:44;100587.00;;;28.29;46.58
61528;BME280;47395;42.032;-8.634;2022-07-15T06:54:45;100586.53;;;27.82;47.47
61528;BME280;47395;42.032;-8.634;2022-07-15T06:56:46;100584.22;;;28.00;47.70
61528;BME280;47395;42.032;-8.634;2022-07-15T06:58:48;100585.31;;;28.28;47.02
61528;BME280;47395;42.032;-8.634;2022-07-15T07:00:49;100593.28;;;28.14;46.88
61528;BME280;47395;42.032;-8.634;2022-07-15T07:02:50;100600.28;;;27.43;48.73
61528;BME280;47395;42.032;-8.634;2022-07-15T07:04:50;100600.34;;;27.50;48.94
61528;BME280;47395;42.032;-8.634;2022-07-15T07:06:51;100600.41;;;27.05;50.07
61528;BME280;47395;42.032;-8.634;2022-07-15T07:08:53;100607.00;;;27.32;49.92
61528;BME280;47395;42.032;-8.634;2022-07-15T07:10:54;100607.56;;;28.23;47.49
61528;BME280;47395;42.032;-8.634;2022-07-15T07:12:54;100613.94;;;29.01;45.71
61528;BME280;47395;42.032;-8.634;2022-07-15T07:14:55;100608.81;;;29.69;44.37
61528;BME280;47395;42.032;-8.634;2022-07-15T07:16:56;100609.72;;;30.30;42.42
61528;BME280;47395;42.032;-8.634;2022-07-15T07:18:57;100617.28;;;31.28;40.75
61528;BME280;47395;42.032;-8.634;2022-07-15T07:20:59;100629.84;;;31.36;40.47
61528;BME280;47395;42.032;-8.634;2022-07-15T07:22:59;100631.09;;;32.62;38.45
61528;BME280;47395;42.032;-8.634;2022-07-15T07:25:00;100629.38;;;33.05;36.82
61528;BME280;47395;42.032;-8.634;2022-07-15T07:27:01;100633.34;;;32.65;37.94
61528;BME280;47395;42.032;-8.634;2022-07-15T07:29:02;100641.38;;;33.04;37.10
61528;BME280;47395;42.032;-8.634;2022-07-15T07:31:04;100641.16;;;33.55;36.14
61528;BME280;47395;42.032;-8.634;2022-07-15T07:33:05;100642.97;;;33.43;36.41
61528;BME280;47395;42.032;-8.634;2022-07-15T07:35:06;100637.44;;;34.59;34.49
61528;BME280;47395;42.032;-8.634;2022-07-15T07:37:07;100646.09;;;33.46;35.78
61528;BME280;47395;42.032;-8.634;2022-07-15T07:39:08;100646.94;;;34.20;34.91
61528;BME280;47395;42.032;-8.634;2022-07-15T07:41:10;100644.94;;;33.85;35.39
61528;BME280;47395;42.032;-8.634;2022-07-15T07:43:10;100640.31;;;34.28;35.12
61528;BME280;47395;42.032;-8.634;2022-07-15T07:45:11;100647.34;;;34.72;34.31
61528;BME280;47395;42.032;-8.634;2022-07-15T07:47:12;100649.09;;;34.42;34.59
61528;BME280;47395;42.032;-8.634;2022-07-15T07:49:13;100650.34;;;34.70;33.86
61528;BME280;47395;42.032;-8.634;2022-07-15T07:51:16;100650.69;;;34.74;34.09
61528;BME280;47395;42.032;-8.634;2022-07-15T07:53:17;100653.00;;;33.49;36.40
61528;BME280;47395;42.032;-8.634;2022-07-15T07:55:18;100658.00;;;34.14;35.47
61528;BME280;47395;42.032;-8.634;2022-07-15T07:57:19;100662.25;;;33.67;36.37
61528;BME280;47395;42.032;-8.634;2022-07-15T07:59:20;100660.66;;;34.02;35.29
61528;BME280;47395;42.032;-8.634;2022-07-15T08:01:20;100647.84;;;35.34;33.13
61528;BME280;47395;42.032;-8.634;2022-07-15T08:03:21;100661.28;;;35.76;32.28
61528;BME280;47395;42.032;-8.634;2022-07-15T08:05:23;100654.56;;;35.84;32.22
61528;BME280;47395;42.032;-8.634;2022-07-15T08:07:24;100657.66;;;36.39;31.39
61528;BME280;47395;42.032;-8.634;2022-07-15T08:09:25;100659.53;;;36.73;31.16
61528;BME280;47395;42.032;-8.634;2022-07-15T08:11:27;100652.31;;;37.06;30.56
61528;BME280;47395;42.032;-8.634;2022-07-15T08:13:27;100651.13;;;37.47;29.96
61528;BME280;47395;42.032;-8.634;2022-07-15T08:15:29;100662.22;;;36.34;31.20
61528;BME280;47395;42.032;-8.634;2022-07-15T08:17:30;100665.16;;;36.44;30.69
61528;BME280;47395;42.032;-8.634;2022-07-15T08:19:31;100657.63;;;35.59;32.41
61528;BME280;47395;42.032;-8.634;2022-07-15T08:21:32;100665.41;;;35.50;32.51
61528;BME280;47395;42.032;-8.634;2022-07-15T08:23:33;100665.22;;;36.49;31.35
61528;BME280;47395;42.032;-8.634;2022-07-15T08:25:36;100671.72;;;37.22;29.56
61528;BME280;47395;42.032;-8.634;2022-07-15T08:27:37;100675.38;;;37.05;30.46
61528;BME280;47395;42.032;-8.634;2022-07-15T08:29:38;100677.16;;;36.77;30.83
61528;BME280;47395;42.032;-8.634;2022-07-15T08:31:39;100681.47;;;37.13;30.11
61528;BME280;47395;42.032;-8.634;2022-07-15T08:33:39;100686.09;;;37.52;29.82
61528;BME280;47395;42.032;-8.634;2022-07-15T08:35:41;100682.41;;;37.18;29.75
61528;BME280;47395;42.032;-8.634;2022-07-15T08:37:42;100681.00;;;37.16;30.22
61528;BME280;47395;42.032;-8.634;2022-07-15T08:39:42;100675.19;;;37.12;29.61
61528;BME280;47395;42.032;-8.634;2022-07-15T08:41:44;100679.78;;;36.67;30.85
61528;BME280;47395;42.032;-8.634;2022-07-15T08:43:45;100686.84;;;35.82;32.07
61528;BME280;47395;42.032;-8.634;2022-07-15T08:45:46;100687.41;;;36.82;30.92
61528;BME280;47395;42.032;-8.634;2022-07-15T08:47:48;100683.38;;;36.33;31.08
61528;BME280;47395;42.032;-8.634;2022-07-15T08:49:58;100679.53;;;36.17;31.37
61528;BME280;47395;42.032;-8.634;2022-07-15T08:52:01;100693.00;;;37.54;29.72
61528;BME280;47395;42.032;-8.634;2022-07-15T08:54:02;100696.44;;;37.67;29.52
61528;BME280;47395;42.032;-8.634;2022-07-15T08:56:03;100693.25;;;38.08;29.12
61528;BME280;47395;42.032;-8.634;2022-07-15T08:58:04;100688.63;;;38.84;28.19
61528;BME280;47395;42.032;-8.634;2022-07-15T09:00:06;100688.66;;;37.86;29.36
61528;BME280;47395;42.032;-8.634;2022-07-15T09:02:13;100694.56;;;38.60;28.33
61528;BME280;47395;42.032;-8.634;2022-07-15T09:04:15;100677.41;;;39.76;26.34
61528;BME280;47395;42.032;-8.634;2022-07-15T09:06:40;100680.16;;;38.15;28.24
61528;BME280;47395;42.032;-8.634;2022-07-15T09:08:41;100675.28;;;38.60;28.17
61528;BME280;47395;42.032;-8.634;2022-07-15T09:10:56;100684.22;;;37.80;28.25
61528;BME280;47395;42.032;-8.634;2022-07-15T09:12:58;100686.16;;;37.34;28.64
61528;BME280;47395;42.032;-8.634;2022-07-15T09:14:58;100683.31;;;37.74;28.88
61528;BME280;47395;42.032;-8.634;2022-07-15T09:17:20;100692.81;;;37.39;28.92
61528;BME280;47395;42.032;-8.634;2022-07-15T09:19:21;100686.75;;;37.14;29.51
61528;BME280;47395;42.032;-8.634;2022-07-15T09:21:26;100693.41;;;37.41;29.01
61528;BME280;47395;42.032;-8.634;2022-07-15T09:23:28;100694.66;;;37.55;28.81
61528;BME280;47395;42.032;-8.634;2022-07-15T09:25:31;100694.88;;;38.04;28.37
61528;BME280;47395;42.032;-8.634;2022-07-15T09:27:37;100693.38;;;37.91;27.95
61528;BME280;47395;42.032;-8.634;2022-07-15T09:29:38;100684.63;;;38.26;27.37
61528;BME280;47395;42.032;-8.634;2022-07-15T09:31:58;100693.34;;;37.85;27.49
61528;BME280;47395;42.032;-8.634;2022-07-15T09:34:19;100693.38;;;38.56;27.21
61528;BME280;47395;42.032;-8.634;2022-07-15T09:36:25;100698.56;;;38.15;27.88
61528;BME280;47395;42.032;-8.634;2022-07-15T09:38:26;100691.53;;;37.69;29.09
61528;BME280;47395;42.032;-8.634;2022-07-15T09:40:27;100696.69;;;38.20;28.77
61528;BME280;47395;42.032;-8.634;2022-07-15T09:42:27;100695.94;;;39.11;27.79
61528;BME280;47395;42.032;-8.634;2022-07-15T09:44:28;100685.53;;;39.24;27.91
61528;BME280;47395;42.032;-8.634;2022-07-15T09:46:54;100690.63;;;39.84;26.78
61528;BME280;47395;42.032;-8.634;2022-07-15T09:48:55;100692.19;;;39.43;26.80
61528;BME280;47395;42.032;-8.634;2022-07-15T09:51:00;100695.50;;;37.83;28.69
61528;BME280;47395;42.032;-8.634;2022-07-15T09:53:12;100698.06;;;37.18;30.11
61528;BME280;47395;42.032;-8.634;2022-07-15T09:55:13;100689.22;;;37.38;30.15
61528;BME280;47395;42.032;-8.634;2022-07-15T09:57:16;100685.84;;;38.79;28.35
61528;BME280;47395;42.032;-8.634;2022-07-15T09:59:18;100684.03;;;39.95;26.68
61528;BME280;47395;42.032;-8.634;2022-07-15T10:01:19;100695.59;;;40.76;25.52
61528;BME280;47395;42.032;-8.634;2022-07-15T10:03:20;100687.06;;;40.36;26.33
61528;BME280;47395;42.032;-8.634;2022-07-15T10:05:23;100691.13;;;40.85;25.35
61528;BME280;47395;42.032;-8.634;2022-07-15T10:07:25;100697.44;;;41.11;24.45
61528;BME280;47395;42.032;-8.634;2022-07-15T10:09:29;100696.81;;;41.20;25.06
61528;BME280;47395;42.032;-8.634;2022-07-15T10:11:33;100686.47;;;40.80;25.59
61528;BME280;47395;42.032;-8.634;2022-07-15T10:13:44;100685.41;;;40.29;25.70
61528;BME280;47395;42.032;-8.634;2022-07-15T10:16:14;100680.25;;;39.17;27.42
61528;BME280;47395;42.032;-8.634;2022-07-15T10:24:07;100681.03;;;40.23;25.27
61528;BME280;47395;42.032;-8.634;2022-07-15T10:26:28;100682.31;;;40.72;24.77
61528;BME280;47395;42.032;-8.634;2022-07-15T10:29:02;100679.63;;;41.28;23.67
61528;BME280;47395;42.032;-8.634;2022-07-15T10:31:33;100684.50;;;42.32;23.04
61528;BME280;47395;42.032;-8.634;2022-07-15T10:33:34;100680.44;;;42.19;23.19
61528;BME280;47395;42.032;-8.634;2022-07-15T10:35:40;100682.41;;;43.41;22.22
61528;BME280;47395;42.032;-8.634;2022-07-15T10:40:22;100693.06;;;43.53;21.15
61528;BME280;47395;42.032;-8.634;2022-07-15T10:42:24;100685.09;;;44.93;18.93
61528;BME280;47395;42.032;-8.634;2022-07-15T10:44:37;100680.47;;;43.61;20.94
61528;BME280;47395;42.032;-8.634;2022-07-15T10:46:47;100684.47;;;43.11;21.28
61528;BME280;47395;42.032;-8.634;2022-07-15T10:49:28;100689.81;;;44.65;19.15